New York, New York
Traffic Map
Current Weather Conditions
New York, New York
Clear
Clear
16°
Feels Like: 16°
Wind Chill: 16° Ceiling: Unl
Heat Index: 16° Visibility: 10mi
Dew Point: Wind: 6mph
Humidity: 60% Direction: ° ()
Pressure: 30.19in Gusts: 0mph
Raw Report DataKNYC 190651Z AUTO VRB05KT 10SM CLR 16/08 A3019 RMK AO2 SLP214 T01610083
Traffic Incident Summary
Active as of:
Severity:
Category:
InformationThere was an issue retrieving the traffic information for this location. Please try a different location or try again shortly.
Advertisements
Track Severe Weather on mobile